sensor_id;sensor_type;location;lat;lon;timestamp;P1;durP1;ratioP1;P2;durP2;ratioP2
54555;SDS011;57291;37.520;15.106;2024-01-27T00:00:57;26.33;;;16.27;;
54555;SDS011;57291;37.520;15.106;2024-01-27T00:03:24;23.15;;;14.77;;
54555;SDS011;57291;37.520;15.106;2024-01-27T00:05:52;27.73;;;16.05;;
54555;SDS011;57291;37.520;15.106;2024-01-27T00:08:19;28.20;;;16.98;;
54555;SDS011;57291;37.520;15.106;2024-01-27T00:10:48;27.13;;;16.23;;
54555;SDS011;57291;37.520;15.106;2024-01-27T00:13:15;28.23;;;15.05;;
54555;SDS011;57291;37.520;15.106;2024-01-27T00:15:43;26.27;;;16.02;;
54555;SDS011;57291;37.520;15.106;2024-01-27T00:18:10;24.77;;;15.25;;
54555;SDS011;57291;37.520;15.106;2024-01-27T00:20:38;29.15;;;16.42;;
54555;SDS011;57291;37.520;15.106;2024-01-27T00:23:05;25.25;;;15.00;;
54555;SDS011;57291;37.520;15.106;2024-01-27T00:25:32;26.98;;;15.98;;
54555;SDS011;57291;37.520;15.106;2024-01-27T00:28:00;24.38;;;15.25;;
54555;SDS011;57291;37.520;15.106;2024-01-27T00:30:27;26.08;;;15.18;;
54555;SDS011;57291;37.520;15.106;2024-01-27T00:32:55;27.30;;;15.55;;
54555;SDS011;57291;37.520;15.106;2024-01-27T00:35:23;26.00;;;14.98;;
54555;SDS011;57291;37.520;15.106;2024-01-27T00:37:51;26.13;;;15.82;;
54555;SDS011;57291;37.520;15.106;2024-01-27T00:40:18;27.52;;;16.58;;
54555;SDS011;57291;37.520;15.106;2024-01-27T00:42:45;28.85;;;16.27;;
54555;SDS011;57291;37.520;15.106;2024-01-27T00:45:13;22.20;;;15.38;;
54555;SDS011;57291;37.520;15.106;2024-01-27T00:47:40;29.65;;;15.73;;
54555;SDS011;57291;37.520;15.106;2024-01-27T00:50:08;26.95;;;16.08;;
54555;SDS011;57291;37.520;15.106;2024-01-27T00:52:36;25.77;;;15.88;;
54555;SDS011;57291;37.520;15.106;2024-01-27T00:55:03;23.27;;;16.02;;
54555;SDS011;57291;37.520;15.106;2024-01-27T00:57:31;25.00;;;15.00;;
54555;SDS011;57291;37.520;15.106;2024-01-27T00:59:58;23.92;;;15.40;;
54555;SDS011;57291;37.520;15.106;2024-01-27T01:02:26;22.42;;;14.55;;
54555;SDS011;57291;37.520;15.106;2024-01-27T01:04:53;23.30;;;14.40;;
54555;SDS011;57291;37.520;15.106;2024-01-27T01:07:21;22.27;;;14.70;;
54555;SDS011;57291;37.520;15.106;2024-01-27T01:09:48;24.92;;;15.35;;
54555;SDS011;57291;37.520;15.106;2024-01-27T01:12:15;24.73;;;15.50;;
54555;SDS011;57291;37.520;15.106;2024-01-27T01:14:43;26.55;;;15.52;;
54555;SDS011;57291;37.520;15.106;2024-01-27T01:17:12;28.20;;;16.00;;
54555;SDS011;57291;37.520;15.106;2024-01-27T01:19:40;23.52;;;14.88;;
54555;SDS011;57291;37.520;15.106;2024-01-27T01:22:09;26.35;;;14.85;;
54555;SDS011;57291;37.520;15.106;2024-01-27T01:24:39;25.65;;;15.43;;
54555;SDS011;57291;37.520;15.106;2024-01-27T01:27:06;31.05;;;15.90;;
54555;SDS011;57291;37.520;15.106;2024-01-27T01:29:34;25.35;;;14.75;;
54555;SDS011;57291;37.520;15.106;2024-01-27T01:32:02;23.55;;;15.23;;
54555;SDS011;57291;37.520;15.106;2024-01-27T01:34:29;27.17;;;14.88;;
54555;SDS011;57291;37.520;15.106;2024-01-27T01:36:58;25.88;;;15.77;;
54555;SDS011;57291;37.520;15.106;2024-01-27T01:39:26;25.90;;;14.95;;
54555;SDS011;57291;37.520;15.106;2024-01-27T01:41:53;26.05;;;14.75;;
54555;SDS011;57291;37.520;15.106;2024-01-27T01:44:21;24.30;;;13.93;;
54555;SDS011;57291;37.520;15.106;2024-01-27T01:46:48;25.88;;;14.25;;
54555;SDS011;57291;37.520;15.106;2024-01-27T01:49:16;25.33;;;14.93;;
54555;SDS011;57291;37.520;15.106;2024-01-27T01:51:43;23.05;;;15.02;;
54555;SDS011;57291;37.520;15.106;2024-01-27T01:54:11;25.48;;;14.45;;
54555;SDS011;57291;37.520;15.106;2024-01-27T01:56:48;22.13;;;14.25;;
54555;SDS011;57291;37.520;15.106;2024-01-27T01:59:16;21.13;;;13.60;;
54555;SDS011;57291;37.520;15.106;2024-01-27T02:01:43;26.02;;;14.15;;
54555;SDS011;57291;37.520;15.106;2024-01-27T02:04:12;24.98;;;14.90;;
54555;SDS011;57291;37.520;15.106;2024-01-27T02:06:39;22.85;;;14.70;;
54555;SDS011;57291;37.520;15.106;2024-01-27T02:09:07;25.50;;;14.82;;
54555;SDS011;57291;37.520;15.106;2024-01-27T02:11:34;26.33;;;15.10;;
54555;SDS011;57291;37.520;15.106;2024-01-27T02:14:02;23.45;;;14.63;;
54555;SDS011;57291;37.520;15.106;2024-01-27T02:16:29;21.90;;;13.60;;
54555;SDS011;57291;37.520;15.106;2024-01-27T02:18:56;27.83;;;14.07;;
54555;SDS011;57291;37.520;15.106;2024-01-27T02:21:24;22.73;;;13.57;;
54555;SDS011;57291;37.520;15.106;2024-01-27T02:23:51;21.33;;;13.85;;
54555;SDS011;57291;37.520;15.106;2024-01-27T02:26:19;22.10;;;14.30;;
54555;SDS011;57291;37.520;15.106;2024-01-27T02:28:46;23.40;;;14.20;;
54555;SDS011;57291;37.520;15.106;2024-01-27T02:31:14;21.48;;;13.45;;
54555;SDS011;57291;37.520;15.106;2024-01-27T02:33:41;27.02;;;14.10;;
54555;SDS011;57291;37.520;15.106;2024-01-27T02:36:09;21.08;;;12.85;;
54555;SDS011;57291;37.520;15.106;2024-01-27T02:38:36;24.27;;;13.45;;
54555;SDS011;57291;37.520;15.106;2024-01-27T02:41:04;21.88;;;12.32;;
54555;SDS011;57291;37.520;15.106;2024-01-27T02:43:31;19.98;;;12.90;;
54555;SDS011;57291;37.520;15.106;2024-01-27T02:45:59;22.95;;;13.35;;
54555;SDS011;57291;37.520;15.106;2024-01-27T02:48:26;23.63;;;13.55;;
54555;SDS011;57291;37.520;15.106;2024-01-27T02:50:53;21.20;;;12.32;;
54555;SDS011;57291;37.520;15.106;2024-01-27T02:53:21;23.55;;;13.13;;
54555;SDS011;57291;37.520;15.106;2024-01-27T02:55:49;25.20;;;13.20;;
54555;SDS011;57291;37.520;15.106;2024-01-27T02:58:18;20.52;;;12.25;;
54555;SDS011;57291;37.520;15.106;2024-01-27T03:00:46;21.92;;;13.02;;
54555;SDS011;57291;37.520;15.106;2024-01-27T03:03:13;22.15;;;12.82;;
54555;SDS011;57291;37.520;15.106;2024-01-27T03:05:42;20.70;;;11.98;;
54555;SDS011;57291;37.520;15.106;2024-01-27T03:08:09;26.60;;;12.82;;
54555;SDS011;57291;37.520;15.106;2024-01-27T03:10:37;21.02;;;12.27;;
54555;SDS011;57291;37.520;15.106;2024-01-27T03:13:04;22.73;;;11.85;;
54555;SDS011;57291;37.520;15.106;2024-01-27T03:15:31;22.92;;;12.95;;
54555;SDS011;57291;37.520;15.106;2024-01-27T03:17:59;21.00;;;12.23;;
54555;SDS011;57291;37.520;15.106;2024-01-27T03:20:26;18.85;;;11.75;;
54555;SDS011;57291;37.520;15.106;2024-01-27T03:22:54;25.42;;;13.15;;
54555;SDS011;57291;37.520;15.106;2024-01-27T03:25:22;16.77;;;11.32;;
54555;SDS011;57291;37.520;15.106;2024-01-27T03:27:52;21.80;;;12.10;;
54555;SDS011;57291;37.520;15.106;2024-01-27T03:30:19;24.05;;;13.32;;
54555;SDS011;57291;37.520;15.106;2024-01-27T03:32:47;23.70;;;12.63;;
54555;SDS011;57291;37.520;15.106;2024-01-27T03:35:15;23.33;;;12.15;;
54555;SDS011;57291;37.520;15.106;2024-01-27T03:37:42;18.00;;;11.85;;
54555;SDS011;57291;37.520;15.106;2024-01-27T03:40:11;23.25;;;11.35;;
54555;SDS011;57291;37.520;15.106;2024-01-27T03:42:39;22.42;;;12.35;;
54555;SDS011;57291;37.520;15.106;2024-01-27T03:45:06;20.70;;;11.98;;
54555;SDS011;57291;37.520;15.106;2024-01-27T03:47:34;17.75;;;12.50;;
54555;SDS011;57291;37.520;15.106;2024-01-27T03:50:01;18.55;;;11.90;;
54555;SDS011;57291;37.520;15.106;2024-01-27T03:52:29;20.92;;;11.23;;
54555;SDS011;57291;37.520;15.106;2024-01-27T03:54:56;20.60;;;11.57;;
54555;SDS011;57291;37.520;15.106;2024-01-27T03:57:24;20.10;;;12.10;;
54555;SDS011;57291;37.520;15.106;2024-01-27T03:59:51;22.25;;;12.25;;
54555;SDS011;57291;37.520;15.106;2024-01-27T04:02:19;22.13;;;12.27;;
54555;SDS011;57291;37.520;15.106;2024-01-27T04:04:47;21.38;;;12.02;;
54555;SDS011;57291;37.520;15.106;2024-01-27T04:07:15;23.33;;;13.95;;
54555;SDS011;57291;37.520;15.106;2024-01-27T04:09:43;21.63;;;14.68;;
54555;SDS011;57291;37.520;15.106;2024-01-27T04:12:10;24.92;;;15.35;;
54555;SDS011;57291;37.520;15.106;2024-01-27T04:14:37;24.73;;;14.35;;
54555;SDS011;57291;37.520;15.106;2024-01-27T04:17:05;23.67;;;12.73;;
54555;SDS011;57291;37.520;15.106;2024-01-27T04:19:32;22.25;;;13.05;;
54555;SDS011;57291;37.520;15.106;2024-01-27T04:22:00;21.63;;;12.38;;
54555;SDS011;57291;37.520;15.106;2024-01-27T04:24:27;19.15;;;12.75;;
54555;SDS011;57291;37.520;15.106;2024-01-27T04:26:54;21.55;;;12.15;;
54555;SDS011;57291;37.520;15.106;2024-01-27T04:29:22;24.10;;;12.85;;
54555;SDS011;57291;37.520;15.106;2024-01-27T04:31:49;20.98;;;11.93;;
54555;SDS011;57291;37.520;15.106;2024-01-27T04:34:17;20.20;;;12.07;;
54555;SDS011;57291;37.520;15.106;2024-01-27T04:36:44;21.48;;;12.73;;
54555;SDS011;57291;37.520;15.106;2024-01-27T04:39:12;23.15;;;12.48;;
54555;SDS011;57291;37.520;15.106;2024-01-27T04:41:43;23.70;;;12.70;;
54555;SDS011;57291;37.520;15.106;2024-01-27T04:44:11;23.17;;;12.85;;
54555;SDS011;57291;37.520;15.106;2024-01-27T04:46:38;24.00;;;12.68;;
54555;SDS011;57291;37.520;15.106;2024-01-27T04:49:07;25.17;;;13.32;;
54555;SDS011;57291;37.520;15.106;2024-01-27T04:51:34;24.63;;;13.75;;
54555;SDS011;57291;37.520;15.106;2024-01-27T04:54:02;22.73;;;13.05;;
54555;SDS011;57291;37.520;15.106;2024-01-27T04:56:29;22.92;;;13.98;;
54555;SDS011;57291;37.520;15.106;2024-01-27T04:58:57;23.02;;;13.57;;
54555;SDS011;57291;37.520;15.106;2024-01-27T05:01:24;27.40;;;14.20;;
54555;SDS011;57291;37.520;15.106;2024-01-27T05:03:51;24.52;;;14.82;;
54555;SDS011;57291;37.520;15.106;2024-01-27T05:06:19;24.15;;;13.63;;
54555;SDS011;57291;37.520;15.106;2024-01-27T05:08:46;24.38;;;14.00;;
54555;SDS011;57291;37.520;15.106;2024-01-27T05:11:15;26.58;;;14.63;;
54555;SDS011;57291;37.520;15.106;2024-01-27T05:13:44;23.80;;;14.40;;
54555;SDS011;57291;37.520;15.106;2024-01-27T05:16:11;24.30;;;13.35;;
54555;SDS011;57291;37.520;15.106;2024-01-27T05:18:39;25.95;;;14.80;;
54555;SDS011;57291;37.520;15.106;2024-01-27T05:21:06;23.73;;;14.25;;
54555;SDS011;57291;37.520;15.106;2024-01-27T05:23:34;26.58;;;14.50;;
54555;SDS011;57291;37.520;15.106;2024-01-27T05:26:01;26.45;;;15.50;;
54555;SDS011;57291;37.520;15.106;2024-01-27T05:28:28;27.58;;;15.60;;
54555;SDS011;57291;37.520;15.106;2024-01-27T05:30:56;25.10;;;16.60;;
54555;SDS011;57291;37.520;15.106;2024-01-27T05:33:23;27.13;;;16.00;;
54555;SDS011;57291;37.520;15.106;2024-01-27T05:35:51;27.50;;;16.30;;
54555;SDS011;57291;37.520;15.106;2024-01-27T05:38:18;24.88;;;15.63;;
54555;SDS011;57291;37.520;15.106;2024-01-27T05:40:45;27.58;;;16.35;;
54555;SDS011;57291;37.520;15.106;2024-01-27T05:43:13;24.50;;;16.05;;
54555;SDS011;57291;37.520;15.106;2024-01-27T05:45:40;31.92;;;17.52;;
54555;SDS011;57291;37.520;15.106;2024-01-27T05:48:07;28.20;;;18.15;;
54555;SDS011;57291;37.520;15.106;2024-01-27T05:50:35;39.15;;;21.00;;
54555;SDS011;57291;37.520;15.106;2024-01-27T05:53:02;33.33;;;19.92;;
54555;SDS011;57291;37.520;15.106;2024-01-27T05:55:30;43.40;;;28.35;;
54555;SDS011;57291;37.520;15.106;2024-01-27T05:57:58;37.30;;;24.08;;
54555;SDS011;57291;37.520;15.106;2024-01-27T06:00:25;41.65;;;24.08;;
54555;SDS011;57291;37.520;15.106;2024-01-27T06:02:52;39.38;;;24.73;;
54555;SDS011;57291;37.520;15.106;2024-01-27T06:05:20;40.47;;;24.88;;
54555;SDS011;57291;37.520;15.106;2024-01-27T06:07:47;38.13;;;24.80;;
54555;SDS011;57291;37.520;15.106;2024-01-27T06:10:16;37.53;;;24.27;;
54555;SDS011;57291;37.520;15.106;2024-01-27T06:12:45;47.72;;;27.10;;
54555;SDS011;57291;37.520;15.106;2024-01-27T06:15:12;48.80;;;28.63;;
54555;SDS011;57291;37.520;15.106;2024-01-27T06:17:42;45.85;;;27.83;;
54555;SDS011;57291;37.520;15.106;2024-01-27T06:20:10;41.55;;;28.13;;
54555;SDS011;57291;37.520;15.106;2024-01-27T06:22:38;46.45;;;27.50;;
54555;SDS011;57291;37.520;15.106;2024-01-27T06:25:07;44.65;;;26.20;;
54555;SDS011;57291;37.520;15.106;2024-01-27T06:27:35;42.83;;;26.33;;
54555;SDS011;57291;37.520;15.106;2024-01-27T06:30:02;42.00;;;25.67;;
54555;SDS011;57291;37.520;15.106;2024-01-27T06:32:30;37.03;;;23.45;;
54555;SDS011;57291;37.520;15.106;2024-01-27T06:34:57;36.72;;;22.60;;
54555;SDS011;57291;37.520;15.106;2024-01-27T06:37:24;39.03;;;22.60;;
54555;SDS011;57291;37.520;15.106;2024-01-27T06:39:52;39.60;;;23.45;;
54555;SDS011;57291;37.520;15.106;2024-01-27T06:42:20;40.45;;;23.73;;
54555;SDS011;57291;37.520;15.106;2024-01-27T06:44:48;40.20;;;23.80;;
54555;SDS011;57291;37.520;15.106;2024-01-27T06:47:15;36.08;;;22.65;;
54555;SDS011;57291;37.520;15.106;2024-01-27T06:49:43;35.08;;;23.33;;
54555;SDS011;57291;37.520;15.106;2024-01-27T06:52:10;40.58;;;22.55;;
54555;SDS011;57291;37.520;15.106;2024-01-27T06:54:39;45.53;;;25.48;;
54555;SDS011;57291;37.520;15.106;2024-01-27T06:57:18;39.65;;;23.63;;
54555;SDS011;57291;37.520;15.106;2024-01-27T06:59:49;37.55;;;24.08;;
54555;SDS011;57291;37.520;15.106;2024-01-27T07:02:25;38.13;;;23.92;;
54555;SDS011;57291;37.520;15.106;2024-01-27T07:04:55;41.33;;;23.85;;
54555;SDS011;57291;37.520;15.106;2024-01-27T07:07:26;33.47;;;21.92;;
54555;SDS011;57291;37.520;15.106;2024-01-27T07:09:55;36.28;;;21.85;;
54555;SDS011;57291;37.520;15.106;2024-01-27T07:12:22;38.58;;;21.92;;
54555;SDS011;57291;37.520;15.106;2024-01-27T07:14:50;36.20;;;21.55;;
54555;SDS011;57291;37.520;15.106;2024-01-27T07:17:23;36.60;;;21.42;;
54555;SDS011;57291;37.520;15.106;2024-01-27T07:19:51;32.17;;;21.05;;
54555;SDS011;57291;37.520;15.106;2024-01-27T07:22:18;32.75;;;19.95;;
54555;SDS011;57291;37.520;15.106;2024-01-27T07:24:46;38.95;;;21.88;;
54555;SDS011;57291;37.520;15.106;2024-01-27T07:27:13;37.03;;;21.13;;
54555;SDS011;57291;37.520;15.106;2024-01-27T07:29:40;35.08;;;20.20;;
54555;SDS011;57291;37.520;15.106;2024-01-27T07:32:08;35.72;;;20.92;;
54555;SDS011;57291;37.520;15.106;2024-01-27T07:34:41;35.85;;;21.10;;
54555;SDS011;57291;37.520;15.106;2024-01-27T07:37:09;43.05;;;20.98;;
54555;SDS011;57291;37.520;15.106;2024-01-27T07:39:37;29.42;;;19.05;;
54555;SDS011;57291;37.520;15.106;2024-01-27T07:42:04;34.85;;;19.67;;
54555;SDS011;57291;37.520;15.106;2024-01-27T07:44:32;27.00;;;17.08;;
54555;SDS011;57291;37.520;15.106;2024-01-27T07:46:59;34.20;;;19.58;;
54555;SDS011;57291;37.520;15.106;2024-01-27T07:49:26;36.85;;;19.60;;
54555;SDS011;57291;37.520;15.106;2024-01-27T07:51:55;35.60;;;18.73;;
54555;SDS011;57291;37.520;15.106;2024-01-27T07:54:23;34.78;;;18.88;;
54555;SDS011;57291;37.520;15.106;2024-01-27T07:56:50;33.70;;;19.73;;
54555;SDS011;57291;37.520;15.106;2024-01-27T07:59:18;35.08;;;19.52;;
54555;SDS011;57291;37.520;15.106;2024-01-27T08:01:46;34.72;;;19.92;;
54555;SDS011;57291;37.520;15.106;2024-01-27T08:04:13;38.13;;;19.63;;
54555;SDS011;57291;37.520;15.106;2024-01-27T08:06:49;30.05;;;18.00;;
54555;SDS011;57291;37.520;15.106;2024-01-27T08:09:17;34.92;;;19.60;;
54555;SDS011;57291;37.520;15.106;2024-01-27T08:11:45;34.08;;;19.65;;
54555;SDS011;57291;37.520;15.106;2024-01-27T08:16:47;33.53;;;18.77;;
54555;SDS011;57291;37.520;15.106;2024-01-27T08:19:14;32.15;;;20.38;;
54555;SDS011;57291;37.520;15.106;2024-01-27T08:21:48;31.98;;;19.42;;
54555;SDS011;57291;37.520;15.106;2024-01-27T08:24:15;30.40;;;19.27;;
54555;SDS011;57291;37.520;15.106;2024-01-27T08:26:43;27.52;;;16.95;;
54555;SDS011;57291;37.520;15.106;2024-01-27T08:29:13;27.83;;;17.52;;
54555;SDS011;57291;37.520;15.106;2024-01-27T08:31:43;29.58;;;16.50;;
54555;SDS011;57291;37.520;15.106;2024-01-27T08:34:11;29.52;;;16.17;;
54555;SDS011;57291;37.520;15.106;2024-01-27T08:36:40;31.80;;;17.00;;
54555;SDS011;57291;37.520;15.106;2024-01-27T08:39:07;21.25;;;14.13;;
54555;SDS011;57291;37.520;15.106;2024-01-27T08:41:35;20.60;;;12.57;;
54555;SDS011;57291;37.520;15.106;2024-01-27T08:44:03;18.30;;;11.55;;
54555;SDS011;57291;37.520;15.106;2024-01-27T08:46:30;19.65;;;11.68;;
54555;SDS011;57291;37.520;15.106;2024-01-27T08:48:58;23.17;;;15.45;;
54555;SDS011;57291;37.520;15.106;2024-01-27T08:51:25;21.88;;;13.95;;
54555;SDS011;57291;37.520;15.106;2024-01-27T08:53:53;19.65;;;12.40;;
54555;SDS011;57291;37.520;15.106;2024-01-27T08:56:20;20.67;;;13.50;;
54555;SDS011;57291;37.520;15.106;2024-01-27T08:58:47;23.85;;;14.55;;
54555;SDS011;57291;37.520;15.106;2024-01-27T09:01:16;22.58;;;14.05;;
54555;SDS011;57291;37.520;15.106;2024-01-27T09:03:44;26.80;;;13.88;;
54555;SDS011;57291;37.520;15.106;2024-01-27T09:06:12;33.30;;;18.27;;
54555;SDS011;57291;37.520;15.106;2024-01-27T09:08:39;22.17;;;12.70;;
54555;SDS011;57291;37.520;15.106;2024-01-27T09:11:07;25.95;;;14.15;;
54555;SDS011;57291;37.520;15.106;2024-01-27T09:13:36;20.38;;;10.73;;
54555;SDS011;57291;37.520;15.106;2024-01-27T09:16:03;24.27;;;14.95;;
54555;SDS011;57291;37.520;15.106;2024-01-27T09:18:30;22.95;;;13.88;;
54555;SDS011;57291;37.520;15.106;2024-01-27T09:20:58;24.98;;;15.02;;
54555;SDS011;57291;37.520;15.106;2024-01-27T09:23:25;18.67;;;10.25;;
54555;SDS011;57291;37.520;15.106;2024-01-27T09:25:53;22.23;;;15.13;;
54555;SDS011;57291;37.520;15.106;2024-01-27T09:28:20;20.52;;;10.63;;
54555;SDS011;57291;37.520;15.106;2024-01-27T09:30:47;20.40;;;11.27;;
54555;SDS011;57291;37.520;15.106;2024-01-27T09:33:15;23.05;;;13.20;;
54555;SDS011;57291;37.520;15.106;2024-01-27T09:35:44;23.25;;;14.57;;
54555;SDS011;57291;37.520;15.106;2024-01-27T09:38:12;25.65;;;13.55;;
54555;SDS011;57291;37.520;15.106;2024-01-27T09:40:41;26.10;;;15.85;;
54555;SDS011;57291;37.520;15.106;2024-01-27T09:43:09;20.60;;;12.50;;
54555;SDS011;57291;37.520;15.106;2024-01-27T09:45:42;25.65;;;16.35;;
54555;SDS011;57291;37.520;15.106;2024-01-27T09:48:09;24.48;;;13.45;;
54555;SDS011;57291;37.520;15.106;2024-01-27T09:50:43;22.35;;;13.43;;
54555;SDS011;57291;37.520;15.106;2024-01-27T09:53:12;24.00;;;13.68;;
54555;SDS011;57291;37.520;15.106;2024-01-27T09:55:39;19.85;;;11.60;;
54555;SDS011;57291;37.520;15.106;2024-01-27T09:58:07;21.17;;;12.07;;
54555;SDS011;57291;37.520;15.106;2024-01-27T10:00:35;23.95;;;12.75;;
54555;SDS011;57291;37.520;15.106;2024-01-27T10:03:04;22.13;;;12.68;;
54555;SDS011;57291;37.520;15.106;2024-01-27T10:05:33;20.08;;;12.73;;
54555;SDS011;57291;37.520;15.106;2024-01-27T10:08:01;24.27;;;13.38;;
54555;SDS011;57291;37.520;15.106;2024-01-27T10:10:32;21.88;;;12.40;;
54555;SDS011;57291;37.520;15.106;2024-01-27T10:12:59;21.88;;;11.75;;
54555;SDS011;57291;37.520;15.106;2024-01-27T10:15:30;13.68;;;8.75;;
54555;SDS011;57291;37.520;15.106;2024-01-27T10:18:07;13.40;;;8.75;;
54555;SDS011;57291;37.520;15.106;2024-01-27T10:20:35;16.27;;;7.50;;
54555;SDS011;57291;37.520;15.106;2024-01-27T10:23:12;15.30;;;7.28;;
54555;SDS011;57291;37.520;15.106;2024-01-27T10:25:41;14.07;;;6.45;;
54555;SDS011;57291;37.520;15.106;2024-01-27T10:28:08;10.60;;;6.88;;
54555;SDS011;57291;37.520;15.106;2024-01-27T10:30:37;13.95;;;6.85;;
54555;SDS011;57291;37.520;15.106;2024-01-27T10:35:57;12.93;;;6.22;;
54555;SDS011;57291;37.520;15.106;2024-01-27T10:38:35;12.30;;;6.53;;
54555;SDS011;57291;37.520;15.106;2024-01-27T10:41:04;13.98;;;7.60;;
54555;SDS011;57291;37.520;15.106;2024-01-27T10:43:37;18.20;;;7.38;;
54555;SDS011;57291;37.520;15.106;2024-01-27T10:46:07;11.52;;;6.35;;
54555;SDS011;57291;37.520;15.106;2024-01-27T10:48:35;12.68;;;6.53;;
54555;SDS011;57291;37.520;15.106;2024-01-27T10:51:06;14.70;;;6.88;;
54555;SDS011;57291;37.520;15.106;2024-01-27T10:53:35;13.27;;;6.53;;
54555;SDS011;57291;37.520;15.106;2024-01-27T10:56:04;11.30;;;6.38;;
54555;SDS011;57291;37.520;15.106;2024-01-27T10:58:36;14.25;;;7.25;;
54555;SDS011;57291;37.520;15.106;2024-01-27T11:01:09;17.00;;;6.73;;
54555;SDS011;57291;37.520;15.106;2024-01-27T11:03:39;15.38;;;6.68;;
54555;SDS011;57291;37.520;15.106;2024-01-27T11:06:08;12.02;;;6.22;;
54555;SDS011;57291;37.520;15.106;2024-01-27T11:08:38;17.10;;;6.60;;
54555;SDS011;57291;37.520;15.106;2024-01-27T11:11:10;13.25;;;6.70;;
54555;SDS011;57291;37.520;15.106;2024-01-27T11:13:38;16.20;;;7.07;;
54555;SDS011;57291;37.520;15.106;2024-01-27T11:16:09;14.82;;;7.30;;
54555;SDS011;57291;37.520;15.106;2024-01-27T11:18:44;12.48;;;7.13;;
54555;SDS011;57291;37.520;15.106;2024-01-27T11:21:15;14.88;;;7.00;;
54555;SDS011;57291;37.520;15.106;2024-01-27T11:23:44;14.50;;;7.45;;
54555;SDS011;57291;37.520;15.106;2024-01-27T11:26:19;12.90;;;7.20;;
54555;SDS011;57291;37.520;15.106;2024-01-27T11:28:48;13.90;;;7.40;;
54555;SDS011;57291;37.520;15.106;2024-01-27T11:31:19;15.68;;;7.53;;
54555;SDS011;57291;37.520;15.106;2024-01-27T11:33:48;19.92;;;7.93;;
54555;SDS011;57291;37.520;15.106;2024-01-27T11:36:24;19.77;;;7.45;;
54555;SDS011;57291;37.520;15.106;2024-01-27T11:38:52;14.35;;;7.32;;
54555;SDS011;57291;37.520;15.106;2024-01-27T11:41:24;21.42;;;7.93;;
54555;SDS011;57291;37.520;15.106;2024-01-27T11:43:56;17.85;;;7.72;;
54555;SDS011;57291;37.520;15.106;2024-01-27T11:46:29;18.20;;;8.10;;
54555;SDS011;57291;37.520;15.106;2024-01-27T11:48:56;16.10;;;7.45;;
54555;SDS011;57291;37.520;15.106;2024-01-27T11:51:26;17.13;;;6.95;;
54555;SDS011;57291;37.520;15.106;2024-01-27T11:53:53;21.38;;;7.95;;
54555;SDS011;57291;37.520;15.106;2024-01-27T11:56:21;14.43;;;7.50;;
54555;SDS011;57291;37.520;15.106;2024-01-27T11:58:48;17.00;;;6.82;;
54555;SDS011;57291;37.520;15.106;2024-01-27T12:01:17;15.82;;;6.88;;
54555;SDS011;57291;37.520;15.106;2024-01-27T12:03:45;13.05;;;7.05;;
54555;SDS011;57291;37.520;15.106;2024-01-27T12:06:13;18.65;;;6.97;;
54555;SDS011;57291;37.520;15.106;2024-01-27T12:08:42;14.07;;;6.50;;
54555;SDS011;57291;37.520;15.106;2024-01-27T12:11:16;17.17;;;7.20;;
54555;SDS011;57291;37.520;15.106;2024-01-27T12:13:50;20.33;;;7.35;;
54555;SDS011;57291;37.520;15.106;2024-01-27T12:16:20;18.00;;;8.43;;
54555;SDS011;57291;37.520;15.106;2024-01-27T12:18:51;16.60;;;6.70;;
54555;SDS011;57291;37.520;15.106;2024-01-27T12:21:21;22.13;;;7.18;;
54555;SDS011;57291;37.520;15.106;2024-01-27T12:23:51;23.30;;;8.43;;
54555;SDS011;57291;37.520;15.106;2024-01-27T12:26:28;20.58;;;7.55;;
54555;SDS011;57291;37.520;15.106;2024-01-27T12:28:57;40.00;;;22.08;;
54555;SDS011;57291;37.520;15.106;2024-01-27T12:31:25;25.58;;;12.73;;
54555;SDS011;57291;37.520;15.106;2024-01-27T12:33:55;17.00;;;6.57;;
54555;SDS011;57291;37.520;15.106;2024-01-27T12:36:26;20.00;;;9.15;;
54555;SDS011;57291;37.520;15.106;2024-01-27T12:41:22;16.65;;;6.63;;
54555;SDS011;57291;37.520;15.106;2024-01-27T12:43:51;19.42;;;7.00;;
54555;SDS011;57291;37.520;15.106;2024-01-27T12:46:19;18.42;;;7.05;;
54555;SDS011;57291;37.520;15.106;2024-01-27T12:48:47;18.77;;;7.20;;
54555;SDS011;57291;37.520;15.106;2024-01-27T12:51:15;16.15;;;6.47;;
54555;SDS011;57291;37.520;15.106;2024-01-27T12:53:43;15.68;;;6.65;;
54555;SDS011;57291;37.520;15.106;2024-01-27T12:56:12;15.00;;;6.15;;
54555;SDS011;57291;37.520;15.106;2024-01-27T12:58:40;14.32;;;5.25;;
54555;SDS011;57291;37.520;15.106;2024-01-27T13:01:09;14.27;;;5.95;;
54555;SDS011;57291;37.520;15.106;2024-01-27T13:03:36;9.88;;;4.80;;
54555;SDS011;57291;37.520;15.106;2024-01-27T13:06:07;16.40;;;5.85;;
54555;SDS011;57291;37.520;15.106;2024-01-27T13:08:35;14.35;;;4.85;;
54555;SDS011;57291;37.520;15.106;2024-01-27T13:11:02;11.77;;;5.38;;
54555;SDS011;57291;37.520;15.106;2024-01-27T13:13:30;15.35;;;6.13;;
54555;SDS011;57291;37.520;15.106;2024-01-27T13:15:57;15.65;;;5.78;;
54555;SDS011;57291;37.520;15.106;2024-01-27T13:18:25;10.95;;;5.05;;
54555;SDS011;57291;37.520;15.106;2024-01-27T13:20:52;15.60;;;5.60;;
54555;SDS011;57291;37.520;15.106;2024-01-27T13:23:20;10.98;;;5.82;;
54555;SDS011;57291;37.520;15.106;2024-01-27T13:25:47;12.02;;;5.70;;
54555;SDS011;57291;37.520;15.106;2024-01-27T13:28:34;12.40;;;4.32;;
54555;SDS011;57291;37.520;15.106;2024-01-27T13:31:01;13.73;;;6.00;;
54555;SDS011;57291;37.520;15.106;2024-01-27T13:33:29;11.02;;;4.90;;
54555;SDS011;57291;37.520;15.106;2024-01-27T13:35:57;12.20;;;6.30;;
54555;SDS011;57291;37.520;15.106;2024-01-27T13:38:26;14.70;;;5.32;;
54555;SDS011;57291;37.520;15.106;2024-01-27T13:40:54;12.13;;;5.22;;
54555;SDS011;57291;37.520;15.106;2024-01-27T13:43:22;11.90;;;4.90;;
54555;SDS011;57291;37.520;15.106;2024-01-27T13:45:49;14.50;;;5.78;;
54555;SDS011;57291;37.520;15.106;2024-01-27T13:48:18;14.95;;;5.63;;
54555;SDS011;57291;37.520;15.106;2024-01-27T13:50:46;11.73;;;4.63;;
54555;SDS011;57291;37.520;15.106;2024-01-27T13:53:13;14.73;;;5.72;;
54555;SDS011;57291;37.520;15.106;2024-01-27T13:55:41;10.48;;;5.70;;
54555;SDS011;57291;37.520;15.106;2024-01-27T13:58:10;16.65;;;5.43;;
54555;SDS011;57291;37.520;15.106;2024-01-27T14:00:38;15.90;;;6.05;;
54555;SDS011;57291;37.520;15.106;2024-01-27T14:03:06;16.95;;;5.68;;
54555;SDS011;57291;37.520;15.106;2024-01-27T14:05:33;15.48;;;6.78;;
54555;SDS011;57291;37.520;15.106;2024-01-27T14:08:01;14.52;;;5.82;;
54555;SDS011;57291;37.520;15.106;2024-01-27T14:10:29;15.38;;;6.35;;
54555;SDS011;57291;37.520;15.106;2024-01-27T14:12:56;15.02;;;6.00;;
54555;SDS011;57291;37.520;15.106;2024-01-27T14:15:24;14.18;;;5.85;;
54555;SDS011;57291;37.520;15.106;2024-01-27T14:17:51;18.02;;;6.88;;
54555;SDS011;57291;37.520;15.106;2024-01-27T14:20:19;17.45;;;6.78;;
54555;SDS011;57291;37.520;15.106;2024-01-27T14:22:47;19.73;;;6.13;;
54555;SDS011;57291;37.520;15.106;2024-01-27T14:25:14;13.30;;;5.63;;
54555;SDS011;57291;37.520;15.106;2024-01-27T14:27:42;24.85;;;6.55;;